EDDL Airport Information

Runway Information
Runway 05L Length 8858 ft width 148 ft
Elevation 116 ft Threshold 984 ft Heading 53
Runway 23R Length 8858 ft Width 148 ft
Elevation 124 ft Threshold 984 ft Heading 233
Runway 05R Length 9842 ft width 148 ft
Elevation 121 ft Threshold 984 ft Heading 53
Runway 23L Length 9842 ft Width 148 ft
Elevation 138 ft Threshold 984 ft Heading 233
Airport Frequencies
Type ACC Name LANGEN RAD Frequency 128.55 MHZ
Type APP Name DIR Frequency 128.65 MHZ
Type ATIS Name ATIS Frequency 123.775 MHZ
Type CLD Name CLNC DEL Frequency 121.775 MHZ
Type GND Name GND Frequency 121.9 MHZ
Type INFO Name LANGEN INF Frequency 129.875 MHZ
Type MISC Name DE ICING Frequency 135.225 MHZ
Type TWR Name TWR Frequency 118.3 MHZ
Airport Navaids
Type VOR-DME Name Dusseldorf Frequency 115150 KHZ
Airport Weather Information & NOTAM
ADDS - METARS form results

(0342 UTC 18 November 2018)
Data provider http://aviationweather.gov/metar/data/
 
METAR text: EDDL 180320Z 35004KT 330V030 CAVOK M01/M03 Q1030 NOSIG
Conditions at: EDDL (DUESSELDORF , DE) observed 0320 UTC 18 November 2018
Temperature: -1.0°C (30°F)
Dewpoint: -3.0°C (27°F) [RH = 86%]
Pressure (altimeter): 30.41 inches Hg (1030.0 mb)
Winds: from the N (350 degrees) at 5 MPH (4 knots; 2.1 m/s)
Visibility: 6 or more miles (10+ km)
Ceiling: ceiling and visibility are OK
Clouds: unknown
Weather: no significant weather observed at this time

METAR text: EDDL 180250Z 36005KT CAVOK M01/M03 Q1030 NOSIG
Conditions at: EDDL (DUESSELDORF , DE) observed 0250 UTC 18 November 2018
Temperature: -1.0°C (30°F)
Dewpoint: -3.0°C (27°F) [RH = 86%]
Pressure (altimeter): 30.41 inches Hg (1030.0 mb)
Winds: from the N (360 degrees) at 6 MPH (5 knots; 2.6 m/s)
Visibility: 6 or more miles (10+ km)
Ceiling: ceiling and visibility are OK
Clouds: unknown
Weather: no significant weather observed at this time

Forecast for: EDDL (DUESSELDORF , DE)
Text: TAF EDDL 172300Z 1800/1906 04010KT CAVOK
Forecast period: 0000 UTC 18 November 2018 to 0600 UTC 19 November 2018
Forecast type: FROM: standard forecast or significant change
Winds: from the NE (40 degrees) at 12 MPH (10 knots; 5.1 m/s)
Visibility: 6 or more miles 10+ km)
Ceiling: unknown
Clouds: missing
Weather: NSW  (no significant weather)
Text: TEMPO 1800/1808 05005KT
Forecast period: 0000 to 0800 UTC 18 November 2018
Forecast type: TEMPORARY: The following changes expected for less than half the time period
Winds: from the NE (50 degrees) at 6 MPH (5 knots; 2.6 m/s)
Visibility: missing
Ceiling: unknown
Clouds: missing
Weather: no significant weather forecast for this period